Weatherford, Texas
Current Conditions -  °F | °C
As of 3:53 PM on Friday 31 Oct 2014 (Local Time) from KMWL Reporting Station
Clear Clear  
Wind Chill: 67°   Ceiling: Unl
Heat Index: 67°   Visibility: 10mi
Dew Point: 37°   Wind: 10mph
Humidity: 33%   Direction: 10°N
Pressure: 30.29"   Gusts: NA
Location:  32.76°N, 97.8°W
Report Text: KMWL 312053Z AUTO 01009KT 10SM CLR 19/03 A3029 RMK AO2 SLP250 T01940028 56024
Loading
Personal Weather Stations






























Interactive Weather Map
Tropical Storm Tracking
New forecast layout! Learn more

10-Day Weather Forecast

Advertisements
Track Severe Weather on mobile